Time;durP1;ratioP1;P1;durP2;ratioP2;P2;SDS_P1;SDS_P2;PMS_P1;PMS_P2;Temp;Humidity;BMP_temperature;BMP_pressure;BME280_temperature;BME280_humidity;BME280_pressure;Samples;Min_cycle;Max_cycle;Signal;HPM_P1;HPM_P2
2023/03/09 00:00:48;;;;;;;22.73;19.10;;;;;;;2.90;75.04;98966.09;5065440;28;20465;-65
2023/03/09 00:03:15;;;;;;;24.23;19.55;;;;;;;2.87;75.20;98959.22;5060870;28;20020;-66
2023/03/09 00:05:42;;;;;;;23.38;20.20;;;;;;;2.87;75.33;98958.38;5060103;28;20047;-65
2023/03/09 00:08:08;;;;;;;24.13;20.30;;;;;;;2.89;75.55;98954.31;5064082;28;20025;-65
2023/03/09 00:10:33;;;;;;;23.50;19.85;;;;;;;2.87;75.01;98945.53;5060895;28;20399;-65
2023/03/09 00:12:58;;;;;;;22.35;19.00;;;;;;;2.85;75.16;98953.16;5068601;28;20268;-66
2023/03/09 00:15:24;;;;;;;23.10;19.55;;;;;;;2.85;75.01;98963.28;5063485;28;20037;-65
2023/03/09 00:17:49;;;;;;;24.05;19.75;;;;;;;2.85;75.72;98928.50;5053944;28;20067;-65
2023/03/09 00:20:17;;;;;;;21.92;18.30;;;;;;;2.88;75.26;98917.03;5068175;28;20510;-65
2023/03/09 00:22:47;;;;;;;24.23;19.83;;;;;;;2.85;75.15;98950.41;5065105;28;20087;-65
2023/03/09 00:25:13;;;;;;;24.77;20.63;;;;;;;2.84;75.46;98970.69;5060500;28;21591;-65
2023/03/09 00:27:40;;;;;;;23.95;20.55;;;;;;;2.82;75.12;98972.81;5063215;28;20113;-65
2023/03/09 00:30:05;;;;;;;24.80;20.95;;;;;;;2.83;75.18;98984.63;5069560;28;20032;-65
2023/03/09 00:32:31;;;;;;;23.20;20.63;;;;;;;2.82;75.25;98991.19;5071197;28;20033;-65
2023/03/09 00:34:56;;;;;;;24.23;20.33;;;;;;;2.85;75.09;98991.50;5071156;28;20039;-65
2023/03/09 00:37:22;;;;;;;26.33;21.25;;;;;;;2.86;75.19;99004.13;5071943;28;20115;-66
2023/03/09 00:39:47;;;;;;;24.77;20.98;;;;;;;2.88;75.34;99009.38;5072512;28;20032;-65
2023/03/09 00:42:13;;;;;;;26.02;21.58;;;;;;;2.85;75.35;99001.66;5060990;28;20132;-65
2023/03/09 00:44:39;;;;;;;27.77;22.00;;;;;;;2.81;75.49;99004.06;5068002;28;20056;-65
2023/03/09 00:47:04;;;;;;;25.20;20.92;;;;;;;2.84;75.30;99013.69;5071160;28;20082;-65
2023/03/09 00:49:29;;;;;;;25.23;21.42;;;;;;;2.81;75.84;99015.00;5058024;28;20459;-65
2023/03/09 00:51:55;;;;;;;25.52;20.98;;;;;;;2.81;75.60;99020.50;5055458;28;20040;-66
2023/03/09 00:54:20;;;;;;;26.48;21.77;;;;;;;2.80;75.68;99012.53;5069242;28;20028;-66
2023/03/09 00:56:45;;;;;;;25.48;21.02;;;;;;;2.84;75.11;99013.69;5067855;28;20047;-66
2023/03/09 00:59:11;;;;;;;25.90;21.08;;;;;;;2.84;75.47;99024.66;5067725;28;20029;-65
2023/03/09 01:01:36;;;;;;;25.63;21.27;;;;;;;2.85;75.70;99032.63;5068692;28;20028;-65
2023/03/09 01:04:01;;;;;;;26.63;20.98;;;;;;;2.83;75.21;99034.78;5071410;28;20429;-65
2023/03/09 01:06:27;;;;;;;24.15;19.83;;;;;;;2.85;75.41;99038.09;5067733;28;20024;-65
2023/03/09 01:08:52;;;;;;;27.45;22.00;;;;;;;2.87;75.38;99046.06;5053352;28;20363;-65
2023/03/09 01:11:19;;;;;;;25.38;20.48;;;;;;;2.81;75.73;99067.06;5052675;28;20048;-65
2023/03/09 01:13:44;;;;;;;25.25;20.65;;;;;;;2.83;75.11;99088.72;5066771;28;20047;-65
2023/03/09 01:16:10;;;;;;;26.17;20.63;;;;;;;2.83;76.10;99099.69;5070756;28;20028;-66
2023/03/09 01:18:35;;;;;;;25.05;20.60;;;;;;;2.83;75.12;99095.06;5072456;28;20028;-65
2023/03/09 01:21:01;;;;;;;24.75;20.20;;;;;;;2.85;75.44;99084.69;5072515;28;20115;-65
2023/03/09 01:23:27;;;;;;;23.38;19.17;;;;;;;2.88;75.79;99091.59;5066311;28;20431;-65
2023/03/09 01:25:52;;;;;;;25.20;21.08;;;;;;;2.89;75.40;99079.53;5053468;28;20032;-65
2023/03/09 01:28:18;;;;;;;24.77;20.27;;;;;;;2.90;75.57;99092.16;5053523;28;20020;-65
2023/03/09 01:30:43;;;;;;;24.27;20.17;;;;;;;2.88;75.33;99091.59;5070859;28;20490;-66
2023/03/09 01:33:08;;;;;;;25.33;21.65;;;;;;;2.89;75.90;99112.41;5067017;28;20351;-65
2023/03/09 01:35:34;;;;;;;24.55;19.48;;;;;;;2.89;76.04;99118.72;5071991;28;20115;-65
2023/03/09 01:37:59;;;;;;;24.58;20.50;;;;;;;2.90;76.06;99106.69;5072125;28;20064;-65
2023/03/09 01:40:26;;;;;;;25.40;20.35;;;;;;;2.89;76.41;99106.94;5072619;28;20025;-65
2023/03/09 01:42:59;;;;;;;26.90;21.35;;;;;;;2.84;75.78;99115.06;5071044;28;20024;-65
2023/03/09 01:45:24;;;;;;;24.50;20.27;;;;;;;2.85;76.56;99116.72;5071970;28;20027;-65
2023/03/09 01:47:49;;;;;;;27.05;21.40;;;;;;;2.86;76.07;99110.16;5072508;28;20032;-66
2023/03/09 01:50:18;;;;;;;25.98;21.13;;;;;;;2.86;76.36;99112.91;5067610;28;20032;-65
2023/03/09 01:52:46;;;;;;;26.63;21.25;;;;;;;2.88;76.41;99117.06;5081978;28;20025;-65
2023/03/09 01:55:15;;;;;;;27.75;22.27;;;;;;;2.84;76.35;99128.78;5072327;28;20081;-65
2023/03/09 01:57:44;;;;;;;28.25;20.75;;;;;;;2.86;76.70;99132.09;5070660;28;20123;-65
2023/03/09 02:00:13;;;;;;;26.27;21.73;;;;;;;2.85;76.44;99133.16;5071615;28;20127;-65
2023/03/09 02:02:40;;;;;;;27.25;22.20;;;;;;;2.85;76.13;99133.16;5070048;28;20031;-66
2023/03/09 02:05:10;;;;;;;29.50;22.75;;;;;;;2.83;76.06;99149.88;5067291;28;20115;-65
2023/03/09 02:07:39;;;;;;;28.40;22.38;;;;;;;2.84;76.38;99154.25;5067380;28;20437;-65
2023/03/09 02:10:13;;;;;;;26.27;21.38;;;;;;;2.88;76.24;99158.19;5071918;28;20047;-65
2023/03/09 02:12:40;;;;;;;28.63;22.27;;;;;;;2.87;76.29;99158.41;5068757;28;20032;-66
2023/03/09 02:15:07;;;;;;;29.13;22.83;;;;;;;2.90;76.91;99149.69;5070026;28;20391;-66
2023/03/09 02:17:32;;;;;;;29.83;23.60;;;;;;;2.88;76.37;99146.38;5072135;28;20430;-65
2023/03/09 02:20:12;;;;;;;29.17;22.55;;;;;;;2.92;76.90;99137.44;5069221;28;20028;-65
2023/03/09 02:22:38;;;;;;;28.85;22.88;;;;;;;2.91;76.50;99132.19;5066228;28;20879;-65
2023/03/09 02:25:22;;;;;;;32.03;24.17;;;;;;;2.92;76.86;99142.09;5072038;28;20059;-65
2023/03/09 02:27:48;;;;;;;30.55;23.60;;;;;;;2.90;75.88;99139.56;5070805;28;20040;-65
2023/03/09 02:30:14;;;;;;;31.75;24.05;;;;;;;2.92;76.50;99144.81;5070464;28;20028;-65
2023/03/09 02:32:39;;;;;;;30.00;23.48;;;;;;;2.91;76.26;99137.69;5069738;28;20036;-64
2023/03/09 02:35:09;;;;;;;32.40;24.75;;;;;;;2.90;76.61;99155.19;5071102;28;20103;-65
2023/03/09 02:37:37;;;;;;;32.10;25.05;;;;;;;2.90;76.28;99166.13;5068871;28;20093;-65
2023/03/09 02:40:18;;;;;;;30.00;24.10;;;;;;;2.92;76.81;99180.44;5068671;28;20036;-65
2023/03/09 02:42:45;;;;;;;34.60;25.48;;;;;;;2.90;76.92;99180.66;5068676;28;20069;-65
2023/03/09 02:45:14;;;;;;;32.47;24.65;;;;;;;2.89;76.48;99178.19;5059018;28;20059;-65
2023/03/09 02:47:39;;;;;;;31.40;24.15;;;;;;;2.89;76.46;99172.72;5070791;28;20044;-65
2023/03/09 02:50:07;;;;;;;32.53;24.58;;;;;;;2.88;76.84;99177.38;5067351;28;20032;-65
2023/03/09 02:52:32;;;;;;;32.90;24.42;;;;;;;2.89;77.02;99175.44;5069710;28;20032;-65
2023/03/09 02:54:57;;;;;;;30.23;23.80;;;;;;;2.89;76.75;99178.19;5069891;28;20024;-65
2023/03/09 02:57:22;;;;;;;32.22;23.98;;;;;;;2.88;77.03;99174.63;5070926;28;20638;-65
2023/03/09 02:59:48;;;;;;;34.17;24.55;;;;;;;2.90;76.40;99174.38;5056591;28;20074;-65
2023/03/09 03:02:13;;;;;;;32.08;23.67;;;;;;;2.89;76.66;99169.97;5064058;28;20077;-65
2023/03/09 03:04:38;;;;;;;30.63;23.83;;;;;;;2.92;76.82;99169.47;5069448;28;20101;-65
2023/03/09 03:07:04;;;;;;;29.75;23.23;;;;;;;2.89;76.77;99172.72;5071385;28;20387;-65
2023/03/09 03:09:30;;;;;;;33.70;25.10;;;;;;;2.88;76.78;99174.63;5070468;28;20040;-65
2023/03/09 03:11:55;;;;;;;32.25;24.55;;;;;;;2.89;76.56;99180.94;5066693;28;20040;-65
2023/03/09 03:14:21;;;;;;;34.25;24.95;;;;;;;2.89;77.17;99180.94;5067660;28;20028;-65
2023/03/09 03:16:46;;;;;;;32.70;24.38;;;;;;;2.91;76.35;99173.31;5063245;28;20075;-65
2023/03/09 03:19:11;;;;;;;32.78;24.73;;;;;;;2.91;76.77;99174.13;5070383;28;20079;-65
2023/03/09 03:21:36;;;;;;;32.63;24.30;;;;;;;2.89;77.27;99186.41;5068453;28;20090;-65
2023/03/09 03:24:02;;;;;;;34.05;25.40;;;;;;;2.90;77.13;99177.09;5070420;28;20036;-65
2023/03/09 03:26:27;;;;;;;32.50;24.65;;;;;;;2.92;76.94;99196.88;5068848;28;20398;-65
2023/03/09 03:28:52;;;;;;;35.38;25.85;;;;;;;2.90;76.72;99207.25;5070067;28;20020;-65
2023/03/09 03:31:18;;;;;;;34.67;26.45;;;;;;;2.90;76.40;99199.03;5068466;28;20573;-65
2023/03/09 03:33:43;;;;;;;33.63;25.17;;;;;;;2.94;77.10;99208.44;5065605;28;20032;-65
2023/03/09 03:36:08;;;;;;;35.33;25.92;;;;;;;2.93;76.47;99217.72;5070898;28;20060;-65
2023/03/09 03:38:34;;;;;;;33.55;25.13;;;;;;;2.93;76.92;99242.41;5069685;28;20028;-66
2023/03/09 03:40:59;;;;;;;37.17;26.85;;;;;;;2.94;76.56;99249.53;5070956;28;20025;-66
2023/03/09 03:43:24;;;;;;;37.92;27.33;;;;;;;2.92;76.92;99252.53;5068185;28;20361;-66
2023/03/09 03:45:49;;;;;;;36.22;27.08;;;;;;;2.91;76.54;99255.53;5069636;28;20029;-65
2023/03/09 03:48:15;;;;;;;38.83;28.38;;;;;;;2.92;76.58;99254.44;5064397;28;20028;-65
2023/03/09 03:50:40;;;;;;;36.80;26.92;;;;;;;2.92;76.82;99257.19;5061250;28;20033;-65
2023/03/09 03:53:06;;;;;;;36.95;27.05;;;;;;;2.93;76.52;99256.94;5069488;28;20120;-66
2023/03/09 03:55:31;;;;;;;38.40;27.73;;;;;;;2.96;76.53;99250.13;5068722;28;20030;-65
2023/03/09 03:57:57;;;;;;;38.45;29.10;;;;;;;2.97;76.54;99256.44;5069973;28;20033;-66
2023/03/09 04:00:22;;;;;;;37.42;27.55;;;;;;;2.98;76.53;99256.19;5065254;28;20036;-65
2023/03/09 04:02:48;;;;;;;38.10;28.75;;;;;;;2.97;76.92;99254.53;5069413;28;20024;-65
2023/03/09 04:05:13;;;;;;;44.33;30.30;;;;;;;2.97;76.51;99260.03;5065861;28;20082;-65
2023/03/09 04:07:38;;;;;;;41.70;29.50;;;;;;;2.98;76.65;99255.38;5068311;28;20036;-65
2023/03/09 04:10:04;;;;;;;39.30;29.30;;;;;;;3.00;76.70;99259.53;5066391;28;20074;-66
2023/03/09 04:12:29;;;;;;;43.90;30.27;;;;;;;3.00;76.71;99258.72;5059699;28;20048;-65
2023/03/09 04:14:55;;;;;;;42.70;30.38;;;;;;;2.98;76.89;99264.41;5070543;28;20024;-65
2023/03/09 04:17:20;;;;;;;43.63;30.85;;;;;;;2.98;76.37;99272.63;5068681;28;20037;-65
2023/03/09 04:19:46;;;;;;;44.63;30.40;;;;;;;2.98;75.99;99282.78;5067633;28;20487;-65
2023/03/09 04:22:11;;;;;;;45.45;31.33;;;;;;;2.95;76.61;99284.09;5067135;28;20041;-65
2023/03/09 04:24:36;;;;;;;41.05;29.73;;;;;;;2.94;76.99;99291.47;5068196;28;20028;-65
2023/03/09 04:27:02;;;;;;;46.30;31.20;;;;;;;2.98;76.03;99286.34;5067707;28;20476;-66
2023/03/09 04:29:27;;;;;;;44.47;30.90;;;;;;;2.97;76.79;99292.91;5070012;28;20094;-66
2023/03/09 04:31:52;;;;;;;48.40;32.63;;;;;;;2.97;76.70;99286.59;5069529;28;20040;-65
2023/03/09 04:34:18;;;;;;;47.25;32.25;;;;;;;2.97;76.43;99297.56;5069216;28;20094;-65
2023/03/09 04:36:43;;;;;;;46.47;31.17;;;;;;;2.97;76.84;99294.81;5067855;28;20024;-65
2023/03/09 04:39:09;;;;;;;50.58;33.33;;;;;;;2.98;76.54;99301.97;5067458;28;20029;-66
2023/03/09 04:41:34;;;;;;;46.85;32.65;;;;;;;2.99;76.68;99306.34;5066160;28;20016;-65
2023/03/09 04:44:00;;;;;;;49.08;32.70;;;;;;;2.99;76.41;99309.09;5069824;28;20028;-65
2023/03/09 04:46:25;;;;;;;49.53;32.10;;;;;;;3.02;76.50;99314.09;5069307;28;20031;-65
2023/03/09 04:48:51;;;;;;;47.40;32.45;;;;;;;3.00;76.08;99314.34;5068885;28;20624;-65
2023/03/09 04:51:16;;;;;;;47.58;33.08;;;;;;;3.01;76.04;99316.00;5065125;28;20033;-65
2023/03/09 04:53:41;;;;;;;48.65;32.25;;;;;;;2.99;75.97;99323.66;5067497;28;20483;-65
2023/03/09 04:56:07;;;;;;;52.28;34.08;;;;;;;2.99;76.24;99329.16;5065637;28;20016;-65
2023/03/09 04:58:32;;;;;;;51.05;34.17;;;;;;;2.99;75.98;99334.63;5066375;28;20040;-65
2023/03/09 05:00:57;;;;;;;51.72;34.55;;;;;;;2.97;76.35;99331.28;5057512;28;20020;-64
2023/03/09 05:03:23;;;;;;;54.58;34.40;;;;;;;3.01;75.94;99337.94;5048034;28;20425;-65
2023/03/09 05:05:48;;;;;;;50.88;33.95;;;;;;;3.01;75.46;99343.44;5049394;28;20037;-65
2023/03/09 05:08:13;;;;;;;51.22;34.00;;;;;;;3.03;76.33;99344.03;5060531;28;20123;-65
2023/03/09 05:10:39;;;;;;;53.47;35.00;;;;;;;3.04;76.23;99342.94;5067035;28;20060;-65
2023/03/09 05:13:04;;;;;;;54.42;36.10;;;;;;;3.00;75.80;99351.91;5063621;28;20115;-65
2023/03/09 05:15:29;;;;;;;58.10;36.10;;;;;;;3.03;75.79;99363.22;5063338;28;20036;-65
2023/03/09 05:17:55;;;;;;;54.35;36.50;;;;;;;3.02;76.42;99368.91;5070321;28;20028;-65
2023/03/09 05:20:21;;;;;;;56.05;37.67;;;;;;;3.04;76.17;99369.53;5071133;28;20032;-65
2023/03/09 05:22:46;;;;;;;56.67;37.10;;;;;;;3.03;76.45;99382.41;5069579;28;20025;-65
2023/03/09 05:25:12;;;;;;;58.30;37.83;;;;;;;3.02;76.27;99383.47;5069712;28;20664;-66
2023/03/09 05:27:37;;;;;;;61.72;38.03;;;;;;;3.02;75.96;99383.47;5065624;28;20040;-66
2023/03/09 05:30:03;;;;;;;61.20;37.95;;;;;;;3.00;76.47;99382.06;5066831;28;20107;-66
2023/03/09 05:32:28;;;;;;;61.35;38.35;;;;;;;3.03;75.82;99370.63;5062659;28;20480;-66
2023/03/09 05:34:54;;;;;;;62.45;39.00;;;;;;;3.05;75.92;99373.94;5056534;28;20044;-66
2023/03/09 05:37:19;;;;;;;61.72;40.15;;;;;;;3.02;76.40;99375.22;5051635;28;20075;-66
2023/03/09 05:39:44;;;;;;;63.00;38.33;;;;;;;3.05;76.71;99382.97;5054225;28;20035;-66
2023/03/09 05:42:10;;;;;;;61.42;38.65;;;;;;;3.00;76.58;99382.88;5072153;28;20032;-66
2023/03/09 05:44:35;;;;;;;65.70;40.90;;;;;;;3.01;75.73;99384.53;5070138;28;20040;-66
2023/03/09 05:47:00;;;;;;;61.13;40.17;;;;;;;3.02;76.67;99372.50;5069037;28;20024;-66
2023/03/09 05:49:30;;;;;;;63.20;40.67;;;;;;;3.04;75.89;99375.00;5070517;28;20063;-66
2023/03/09 05:51:56;;;;;;;64.35;39.65;;;;;;;3.04;75.84;99369.53;5069977;28;20130;-66
2023/03/09 05:54:22;;;;;;;61.45;40.33;;;;;;;3.01;76.30;99378.22;5070166;28;20028;-66
2023/03/09 05:56:47;;;;;;;65.28;40.47;;;;;;;3.01;75.79;99379.06;5071678;28;20073;-66
2023/03/09 05:59:13;;;;;;;66.20;41.55;;;;;;;3.02;75.87;99394.41;5067474;28;20550;-66
2023/03/09 06:01:38;;;;;;;61.70;39.45;;;;;;;2.99;76.17;99403.16;5061837;28;20056;-66
2023/03/09 06:04:04;;;;;;;63.90;41.03;;;;;;;3.02;75.91;99410.03;5058110;28;20025;-66
2023/03/09 06:06:29;;;;;;;66.43;40.33;;;;;;;3.02;76.24;99388.94;5056635;28;20033;-64
2023/03/09 06:08:55;;;;;;;63.33;40.95;;;;;;;3.05;76.44;99404.09;5069683;28;20460;-64
2023/03/09 06:11:21;;;;;;;62.28;40.70;;;;;;;3.06;75.79;99412.06;5071643;28;20044;-64
2023/03/09 06:13:46;;;;;;;59.75;39.92;;;;;;;3.06;75.67;99394.78;5065695;28;20040;-64
2023/03/09 06:16:14;;;;;;;63.28;39.95;;;;;;;3.07;75.78;99396.47;5069604;28;20101;-64
2023/03/09 06:18:40;;;;;;;61.88;40.65;;;;;;;3.05;75.63;99413.13;5064658;28;20352;-65
2023/03/09 06:21:07;;;;;;;65.20;40.72;;;;;;;3.05;75.92;99418.63;5067328;28;20033;-64
2023/03/09 06:23:35;;;;;;;62.38;40.17;;;;;;;3.04;75.64;99427.94;5065710;28;20035;-64
2023/03/09 06:26:02;;;;;;;65.60;40.88;;;;;;;3.05;76.02;99426.00;5063167;28;20037;-63
2023/03/09 06:28:27;;;;;;;61.83;39.58;;;;;;;3.06;75.88;99423.03;5066259;28;20547;-66
2023/03/09 06:30:55;;;;;;;63.78;40.65;;;;;;;3.08;75.67;99437.34;5071082;28;20119;-64
2023/03/09 06:33:21;;;;;;;66.03;39.53;;;;;;;3.09;75.90;99433.50;5065632;28;20422;-64
2023/03/09 06:35:46;;;;;;;61.08;40.03;;;;;;;3.10;75.64;99437.91;5064732;28;20081;-64
2023/03/09 06:38:11;;;;;;;63.13;40.33;;;;;;;3.12;76.02;99438.53;5070369;28;20051;-65
2023/03/09 06:40:37;;;;;;;62.13;38.90;;;;;;;3.12;76.22;99448.66;5063188;28;20040;-64
2023/03/09 06:43:02;;;;;;;63.42;39.25;;;;;;;3.10;75.60;99454.38;5067695;28;20538;-64
2023/03/09 06:45:27;;;;;;;62.42;40.55;;;;;;;3.10;76.27;99457.09;5065346;28;20031;-65
2023/03/09 06:47:55;;;;;;;60.28;37.95;;;;;;;3.07;76.05;99463.09;5062765;28;20036;-66
2023/03/09 06:50:21;;;;;;;62.65;37.78;;;;;;;3.09;76.39;99465.59;5054452;28;20945;-66
2023/03/09 06:52:47;;;;;;;63.35;40.50;;;;;;;3.08;76.02;99466.66;5067777;28;20032;-65
2023/03/09 06:55:15;;;;;;;62.53;39.30;;;;;;;3.07;76.04;99471.31;5064016;28;20017;-66
2023/03/09 06:57:44;;;;;;;58.08;37.97;;;;;;;3.08;76.51;99480.38;5068733;28;20078;-66
2023/03/09 07:00:11;;;;;;;64.32;40.05;;;;;;;3.07;76.58;99489.69;5068918;28;20057;-66
2023/03/09 07:02:37;;;;;;;59.47;39.05;;;;;;;3.08;76.62;99496.81;5066644;28;20036;-65
2023/03/09 07:05:02;;;;;;;61.78;39.92;;;;;;;3.09;76.70;99498.47;5055419;28;20044;-65
2023/03/09 07:07:28;;;;;;;62.10;39.42;;;;;;;3.12;76.45;99508.97;5053527;28;20028;-64
2023/03/09 07:09:53;;;;;;;59.85;38.47;;;;;;;3.13;76.08;99519.69;5054993;28;20427;-63
2023/03/09 07:12:18;;;;;;;60.30;38.25;;;;;;;3.12;76.06;99526.25;5063726;28;20029;-64
2023/03/09 07:14:45;;;;;;;61.15;39.03;;;;;;;3.15;76.42;99528.53;5058486;28;20058;-64
2023/03/09 07:17:14;;;;;;;53.67;34.30;;;;;;;3.23;77.93;99542.97;5067025;28;20493;-64
2023/03/09 07:19:40;;;;;;;63.67;38.90;;;;;;;3.19;76.01;99545.34;5068191;28;20093;-64
2023/03/09 07:22:06;;;;;;;60.92;38.53;;;;;;;3.19;75.80;99556.31;5060390;28;20029;-63
2023/03/09 07:24:34;;;;;;;61.60;38.10;;;;;;;3.15;76.02;99542.25;5064206;28;20029;-65
2023/03/09 07:26:59;;;;;;;60.53;38.95;;;;;;;3.15;76.25;99536.75;5056352;28;20202;-66
2023/03/09 07:29:25;;;;;;;61.53;38.58;;;;;;;3.15;75.64;99544.97;5060176;28;20559;-68
2023/03/09 07:31:50;;;;;;;57.58;37.47;;;;;;;3.18;75.92;99560.09;5049311;28;20037;-66
2023/03/09 07:34:15;;;;;;;62.72;38.88;;;;;;;3.18;75.59;99562.84;5046970;28;20037;-66
2023/03/09 07:36:41;;;;;;;62.28;38.97;;;;;;;3.16;75.49;99557.63;5064577;28;20024;-67
2023/03/09 07:39:09;;;;;;;65.82;39.38;;;;;;;3.13;76.47;99558.06;5069153;28;20455;-66
2023/03/09 07:41:34;;;;;;;62.55;38.00;;;;;;;3.17;76.13;99585.88;5069307;28;20149;-66
2023/03/09 07:44:00;;;;;;;63.60;38.28;;;;;;;3.17;76.16;99580.38;5061984;28;20059;-67
2023/03/09 07:46:25;;;;;;;60.67;36.20;;;;;;;3.20;76.13;99583.50;5065435;28;20036;-66
2023/03/09 07:48:51;;;;;;;59.45;36.72;;;;;;;3.19;76.18;99583.72;5067158;28;20037;-63
2023/03/09 07:51:17;;;;;;;64.32;38.00;;;;;;;3.20;76.29;99590.88;5057940;28;20036;-67
2023/03/09 07:53:42;;;;;;;62.80;38.30;;;;;;;3.22;76.19;99593.38;5056486;28;20768;-67
2023/03/09 07:56:08;;;;;;;59.22;36.15;;;;;;;3.24;76.50;99588.50;5065418;28;20077;-66
2023/03/09 07:58:36;;;;;;;60.80;38.47;;;;;;;3.23;76.15;99587.69;5066919;28;20032;-66
2023/03/09 08:01:02;;;;;;;63.05;38.20;;;;;;;3.23;76.24;99587.69;5056819;28;20063;-66
2023/03/09 08:03:28;;;;;;;59.75;37.78;;;;;;;3.27;76.31;99591.63;5069107;28;20029;-67
2023/03/09 08:05:55;;;;;;;63.47;38.83;;;;;;;3.27;76.40;99593.53;5068826;28;20024;-66
2023/03/09 08:08:22;;;;;;;60.30;37.28;;;;;;;3.27;76.45;99594.34;5069205;28;20112;-67
2023/03/09 08:10:52;;;;;;;63.00;37.33;;;;;;;3.29;76.02;99607.81;5069585;28;20492;-67
2023/03/09 08:13:17;;;;;;;60.60;37.80;;;;;;;3.29;76.29;99610.56;5068532;28;20078;-67
2023/03/09 08:15:42;;;;;;;62.40;38.85;;;;;;;3.32;76.58;99601.88;5066022;28;20028;-67
2023/03/09 08:18:08;;;;;;;62.70;38.08;;;;;;;3.31;76.18;99617.50;5081240;28;20096;-66
2023/03/09 08:20:33;;;;;;;62.50;37.40;;;;;;;3.32;76.43;99629.28;5083426;28;20027;-68
2023/03/09 08:22:59;;;;;;;63.60;36.63;;;;;;;3.32;76.19;99632.03;5057517;28;20484;-66
2023/03/09 08:25:24;;;;;;;59.40;36.53;;;;;;;3.32;76.30;99627.38;5067982;28;20480;-70
2023/03/09 08:27:51;;;;;;;63.65;36.97;;;;;;;3.34;75.60;99624.38;5070125;28;20036;-67
2023/03/09 08:30:19;;;;;;;61.97;35.75;;;;;;;3.37;75.15;99622.00;5069337;28;20021;-70
2023/03/09 08:32:47;;;;;;;61.10;36.28;;;;;;;3.38;75.85;99623.72;5062318;28;20139;-68
2023/03/09 08:35:14;;;;;;;63.95;37.08;;;;;;;3.40;75.47;99638.00;5068706;28;20039;-67
2023/03/09 08:37:39;;;;;;;63.33;36.90;;;;;;;3.41;76.17;99642.41;5067917;28;20336;-68
2023/03/09 08:40:05;;;;;;;59.72;36.15;;;;;;;3.43;76.52;99644.94;5068429;28;20025;-67
2023/03/09 08:42:30;;;;;;;61.05;37.33;;;;;;;3.42;76.28;99659.72;5064970;28;20040;-67
2023/03/09 08:44:55;;;;;;;64.63;39.28;;;;;;;3.40;76.29;99657.22;5069332;28;20497;-67
2023/03/09 08:47:21;;;;;;;64.50;38.28;;;;;;;3.41;75.70;99652.56;5068367;28;20033;-68
2023/03/09 08:49:47;;;;;;;62.45;36.85;;;;;;;3.44;75.39;99649.34;5069335;28;20028;-68
2023/03/09 08:52:13;;;;;;;59.05;36.97;;;;;;;3.44;74.92;99652.09;5067983;28;20484;-67
2023/03/09 08:54:38;;;;;;;61.05;37.63;;;;;;;3.43;75.89;99670.47;5072408;28;20103;-67
2023/03/09 08:57:04;;;;;;;62.92;37.30;;;;;;;3.47;75.83;99681.81;5073074;28;20051;-68
2023/03/09 08:59:31;;;;;;;59.15;36.58;;;;;;;3.45;75.99;99684.75;5067075;28;20028;-68
2023/03/09 09:01:57;;;;;;;62.63;36.55;;;;;;;3.44;75.34;99676.78;5071841;28;20024;-68
2023/03/09 09:04:23;;;;;;;63.78;37.40;;;;;;;3.42;75.35;99678.94;5072170;28;20025;-68
2023/03/09 09:06:48;;;;;;;63.53;36.70;;;;;;;3.44;75.21;99699.56;5070794;28;20085;-67
2023/03/09 09:09:14;;;;;;;60.15;35.65;;;;;;;3.47;75.44;99701.00;5065771;28;20029;-69
2023/03/09 09:11:39;;;;;;;62.25;36.28;;;;;;;3.48;75.07;99697.19;5059610;28;20052;-68
2023/03/09 09:14:04;;;;;;;62.85;37.50;;;;;;;3.48;75.36;99697.19;5069890;28;20029;-69
2023/03/09 09:16:30;;;;;;;64.40;35.85;;;;;;;3.47;75.28;99705.66;5068082;28;20050;-66
2023/03/09 09:18:56;;;;;;;59.35;35.42;;;;;;;3.49;75.07;99707.06;5071493;28;20041;-67
2023/03/09 09:21:22;;;;;;;59.63;35.95;;;;;;;3.48;74.74;99699.91;5067986;28;20032;-68
2023/03/09 09:23:48;;;;;;;62.70;35.22;;;;;;;3.50;75.30;99695.06;5070967;28;20142;-67
2023/03/09 09:26:15;;;;;;;58.05;34.90;;;;;;;3.53;75.11;99689.06;5069194;28;20031;-67
2023/03/09 09:28:40;;;;;;;61.45;36.10;;;;;;;3.58;75.05;99704.84;5071650;28;20037;-70
2023/03/09 09:31:06;;;;;;;58.95;36.25;;;;;;;3.61;75.63;99698.88;5064047;28;20040;-68
2023/03/09 09:33:33;;;;;;;60.90;35.88;;;;;;;3.61;75.73;99699.69;5068158;28;20127;-68
2023/03/09 09:36:05;;;;;;;65.70;38.50;;;;;;;3.63;74.93;99697.56;5070024;28;20502;-68
2023/03/09 09:38:33;;;;;;;63.88;37.67;;;;;;;3.62;75.85;99712.38;5069567;28;20127;-67
2023/03/09 09:41:04;;;;;;;65.30;37.85;;;;;;;3.62;75.32;99719.78;5072248;28;20060;-69
2023/03/09 09:43:31;;;;;;;61.30;36.55;;;;;;;3.58;74.99;99718.56;5071267;28;20814;-69
2023/03/09 09:45:59;;;;;;;64.57;38.03;;;;;;;3.57;75.57;99717.72;5067841;28;20052;-68
2023/03/09 09:48:25;;;;;;;65.70;37.50;;;;;;;3.57;76.39;99720.44;5063317;28;20086;-68
2023/03/09 09:51:02;;;;;;;62.05;36.95;;;;;;;3.61;76.19;99718.06;5065528;28;20349;-68
2023/03/09 09:54:02;;;;;;;67.10;37.88;;;;;;;3.64;76.14;99712.97;5071559;28;20063;-68
2023/03/09 09:56:53;;;;;;;68.45;39.15;;;;;;;3.62;76.35;99722.50;5064340;28;20032;-69
2023/03/09 09:59:30;;;;;;;61.42;36.25;;;;;;;3.63;76.30;99718.69;5051349;28;20514;-68
2023/03/09 10:02:10;;;;;;;65.97;38.17;;;;;;;3.63;76.03;99729.66;5069100;28;20122;-67
2023/03/09 10:04:45;;;;;;;65.90;38.97;;;;;;;3.64;75.94;99729.41;5058880;28;20028;-67
2023/03/09 10:07:16;;;;;;;70.05;39.78;;;;;;;3.63;76.29;99719.53;5068861;28;20036;-66
2023/03/09 10:09:45;;;;;;;69.05;40.22;;;;;;;3.63;75.84;99725.00;5067593;28;20045;-66
2023/03/09 10:12:15;;;;;;;67.15;39.58;;;;;;;3.68;76.57;99730.63;5067031;28;20025;-67
2023/03/09 10:14:47;;;;;;;69.15;41.10;;;;;;;3.68;76.00;99730.63;5067712;28;20036;-66
2023/03/09 10:17:16;;;;;;;68.72;40.60;;;;;;;3.71;76.58;99726.56;5065888;28;20043;-66
2023/03/09 10:19:43;;;;;;;67.90;40.25;;;;;;;3.68;76.30;99733.38;5071023;28;20029;-67
2023/03/09 10:22:16;;;;;;;65.72;38.90;;;;;;;3.74;76.35;99726.13;5071744;28;20039;-67
2023/03/09 10:24:50;;;;;;;65.40;38.88;;;;;;;3.74;76.04;99731.59;5067280;28;20062;-66
2023/03/09 10:27:27;;;;;;;66.38;39.53;;;;;;;3.77;76.37;99722.03;5066000;28;20047;-67
2023/03/09 10:30:30;;;;;;;67.18;38.60;;;;;;;3.82;76.57;99720.28;5070166;28;20025;-68
2023/03/09 10:33:03;;;;;;;67.28;39.35;;;;;;;3.87;76.14;99722.31;5067159;28;20029;-65
2023/03/09 10:35:28;;;;;;;65.28;38.05;;;;;;;3.91;75.87;99715.25;5066289;28;20111;-68
2023/03/09 10:37:54;;;;;;;65.93;39.22;;;;;;;3.95;75.58;99716.47;5069777;28;20043;-67
2023/03/09 10:40:23;;;;;;;70.53;39.55;;;;;;;3.99;75.90;99717.66;5069731;28;20483;-67
2023/03/09 10:42:49;;;;;;;61.60;37.65;;;;;;;4.02;75.43;99724.59;5064732;28;20040;-66
2023/03/09 10:45:29;;;;;;;60.70;37.08;;;;;;;4.06;75.97;99728.53;5059420;28;20035;-67
2023/03/09 10:48:05;;;;;;;65.32;37.03;;;;;;;4.05;75.02;99715.84;5058915;28;20094;-67
2023/03/09 10:50:54;;;;;;;63.42;36.88;;;;;;;4.06;75.21;99732.13;5070970;28;20028;-67
2023/03/09 10:53:26;;;;;;;62.28;35.92;;;;;;;4.09;75.49;99728.91;5060947;28;20040;-67
2023/03/09 10:55:54;;;;;;;60.70;35.60;;;;;;;4.07;75.78;99725.53;5070009;28;20089;-67
2023/03/09 10:58:21;;;;;;;62.92;37.63;;;;;;;4.09;75.65;99723.41;5069344;28;20032;-67
2023/03/09 11:01:16;;;;;;;63.63;37.63;;;;;;;4.14;75.77;99723.50;5068937;28;20063;-67
2023/03/09 11:03:43;;;;;;;61.10;36.67;;;;;;;4.12;76.07;99722.06;5067733;28;20051;-67
2023/03/09 11:06:29;;;;;;;64.68;37.15;;;;;;;4.16;75.68;99723.25;5070631;28;20025;-67
2023/03/09 11:08:59;;;;;;;59.08;34.75;;;;;;;4.16;76.20;99735.09;5065735;28;20033;-67
2023/03/09 11:11:26;;;;;;;61.20;35.88;;;;;;;4.17;75.93;99725.78;5063817;28;20084;-67
2023/03/09 11:13:53;;;;;;;61.08;36.47;;;;;;;4.17;75.82;99727.72;5060250;28;20424;-67
2023/03/09 11:16:25;;;;;;;64.18;36.45;;;;;;;4.19;76.53;99733.78;5068945;28;20383;-67
2023/03/09 11:19:17;;;;;;;59.42;34.72;;;;;;;4.26;76.60;99734.50;5070539;28;20032;-67
2023/03/09 11:21:59;;;;;;;63.70;35.90;;;;;;;4.24;76.54;99727.56;5067493;28;20037;-67
2023/03/09 11:24:32;;;;;;;60.53;36.13;;;;;;;4.25;75.81;99721.03;5070353;28;20025;-67